Terminal Aerodrome Forecast
Issued by NWS Green Bay, WI

Home | Current Version | Previous Version | Text Only | Print | Product List | Glossary Off
Versions: 1 2 3 4 5 6 7 8 9 10 11 12 13 14 15 16 17 18 19 20 21 22 23 24 25 26 27 28 29 30 31 32 33 34 35 36 37 38

000
FTUS43 KGRB 230244 AAB
TAFGRB
TAF AMD
KGRB 230244Z 2303/2324 20006KT P6SM SCT040 BKN100
     FM230400 22006KT 5SM -TSRA BKN040CB
     FM230500 27004KT 4SM BR BKN050
     FM231200 26005KT P6SM SCT050 SCT100
     FM231500 31009KT P6SM BKN050=

USA.gov is the U.S. government's official web portal to all federal, state and local government web resources and services.